createdAt,value
2023-06-19T06:55:42.284Z,40.58
2023-06-19T06:56:44.246Z,40.62
2023-06-19T06:57:46.169Z,40.46
2023-06-19T06:58:48.171Z,40.63
2023-06-19T06:59:50.080Z,40.63
2023-06-19T07:00:51.974Z,40.66
2023-06-19T07:01:54.108Z,40.45
2023-06-19T07:02:56.181Z,40.31
2023-06-19T07:03:58.194Z,40.31
2023-06-19T07:05:00.097Z,40.28
2023-06-19T07:06:02.098Z,39.79
2023-06-19T07:07:04.074Z,39.41
2023-06-19T07:08:06.106Z,39.57
2023-06-19T07:09:08.066Z,39.49
2023-06-19T07:10:10.583Z,39.79
2023-06-19T07:11:12.477Z,39.38
2023-06-19T07:12:14.427Z,39.25
2023-06-19T07:13:16.279Z,39.23
2023-06-19T07:14:18.129Z,39.56
2023-06-19T07:15:23.155Z,39.84
2023-06-19T07:16:25.960Z,39.84
2023-06-19T07:17:27.932Z,39.68
2023-06-19T07:18:29.843Z,39.70
2023-06-19T07:19:31.783Z,39.70
2023-06-19T07:20:33.733Z,39.50
2023-06-19T07:21:35.586Z,39.22
2023-06-19T07:22:37.562Z,38.90
2023-06-19T07:23:39.594Z,38.71
2023-06-19T07:24:41.477Z,39.27
2023-06-19T07:25:43.604Z,39.27
2023-06-19T07:26:45.601Z,39.08
2023-06-19T07:27:47.623Z,38.69
2023-06-19T07:28:49.456Z,39.00
2023-06-19T07:29:51.412Z,39.34
2023-06-19T07:30:53.376Z,39.16
2023-06-19T07:31:55.318Z,39.36
2023-06-19T07:32:57.321Z,39.17
2023-06-19T07:33:59.324Z,39.08
2023-06-19T07:35:01.296Z,39.06
2023-06-19T07:36:03.234Z,39.27
2023-06-19T07:37:05.191Z,39.60
2023-06-19T07:38:07.238Z,39.54
2023-06-19T07:39:09.215Z,39.69
2023-06-19T07:40:11.959Z,39.69
2023-06-19T07:41:13.918Z,39.58
2023-06-19T07:42:15.866Z,39.31
2023-06-19T07:43:17.816Z,38.98
2023-06-19T07:44:19.674Z,38.84
2023-06-19T07:45:21.515Z,38.38
2023-06-19T07:46:24.338Z,38.44
2023-06-19T07:47:26.281Z,38.11
2023-06-19T07:48:28.298Z,37.96
2023-06-19T07:49:30.150Z,37.49
2023-06-19T07:50:32.418Z,36.83
2023-06-19T07:51:34.774Z,36.93
2023-06-19T07:52:36.723Z,36.97
2023-06-19T07:53:38.579Z,36.94
2023-06-19T07:54:40.537Z,37.03
2023-06-19T07:55:42.384Z,37.19
2023-06-19T07:56:44.436Z,37.79
2023-06-19T07:57:46.383Z,37.76
2023-06-19T07:58:48.243Z,37.57
2023-06-19T07:59:50.192Z,37.33
2023-06-19T08:00:52.138Z,37.37
2023-06-19T08:01:54.086Z,37.39
2023-06-19T08:02:55.998Z,37.00
2023-06-19T08:03:58.069Z,37.00
2023-06-19T08:05:00.100Z,36.44
2023-06-19T08:06:02.130Z,36.44
2023-06-19T08:07:04.063Z,36.44
2023-06-19T08:08:05.911Z,36.40
2023-06-19T08:09:07.769Z,35.96
2023-06-19T08:10:13.845Z,35.78
2023-06-19T08:11:13.733Z,35.83
2023-06-19T08:12:15.672Z,35.84
2023-06-19T08:13:17.681Z,35.84
2023-06-19T08:14:19.579Z,35.70
2023-06-19T08:15:21.944Z,35.88
2023-06-19T08:16:23.903Z,35.81
2023-06-19T08:17:25.913Z,35.92
2023-06-19T08:18:27.914Z,36.14
2023-06-19T08:19:31.184Z,36.38
2023-06-19T08:20:33.142Z,35.98
2023-06-19T08:21:35.796Z,36.04
2023-06-19T08:22:37.641Z,36.07
2023-06-19T08:23:39.594Z,36.00
2023-06-19T08:24:41.571Z,35.90
2023-06-19T08:25:43.703Z,35.41
2023-06-19T08:26:45.871Z,35.47
2023-06-19T08:27:48.016Z,35.58
2023-06-19T08:28:49.978Z,35.99
2023-06-19T08:29:53.187Z,35.43
2023-06-19T08:30:55.224Z,35.08
2023-06-19T08:31:57.180Z,35.02
2023-06-19T08:32:59.265Z,35.02
2023-06-19T08:34:01.290Z,35.36
2023-06-19T08:35:03.634Z,35.58
2023-06-19T08:36:05.786Z,35.71
2023-06-19T08:37:07.746Z,35.73
2023-06-19T08:38:09.701Z,35.56
2023-06-19T08:39:11.642Z,35.69
2023-06-19T08:40:13.906Z,35.19
2023-06-19T08:41:15.861Z,35.02
2023-06-19T08:42:17.704Z,35.13
2023-06-19T08:43:19.488Z,34.73
2023-06-19T08:44:21.420Z,34.68
2023-06-19T08:45:23.668Z,34.87
2023-06-19T08:46:25.799Z,34.86
2023-06-19T08:47:27.690Z,34.55
2023-06-19T08:48:29.633Z,34.03
2023-06-19T08:49:31.589Z,33.80
2023-06-19T08:50:33.539Z,33.35
2023-06-19T08:51:35.402Z,33.70
2023-06-19T08:52:37.354Z,34.06
2023-06-19T08:53:39.286Z,34.18
2023-06-19T08:54:41.349Z,34.35
2023-06-19T08:55:44.422Z,34.51
2023-06-19T08:56:46.703Z,34.73
2023-06-19T08:57:48.640Z,34.67
2023-06-19T08:58:50.585Z,34.31
2023-06-19T08:59:52.553Z,34.27
2023-06-19T09:00:54.498Z,33.94
2023-06-19T09:01:56.453Z,33.97
2023-06-19T09:03:11.914Z,34.27
2023-06-19T09:04:02.251Z,34.27
2023-06-19T09:05:04.359Z,34.33
2023-06-19T09:06:06.767Z,34.48
2023-06-19T09:07:09.096Z,34.26
2023-06-19T09:08:11.229Z,34.16
2023-06-19T09:09:13.081Z,33.83
2023-06-19T09:10:15.452Z,33.63
2023-06-19T09:11:17.224Z,33.54
2023-06-19T09:12:19.228Z,33.27
2023-06-19T09:13:21.107Z,32.84
2023-06-19T09:14:22.955Z,32.71
2023-06-19T09:15:24.907Z,32.79
2023-06-19T09:16:26.857Z,33.16
2023-06-19T09:17:28.893Z,33.08
2023-06-19T09:18:30.874Z,33.23
2023-06-19T09:19:32.929Z,33.15
2023-06-19T09:20:34.977Z,33.00
2023-06-19T09:21:37.326Z,33.00
2023-06-19T09:22:39.694Z,32.95
2023-06-19T09:23:41.646Z,32.68
2023-06-19T09:24:43.856Z,32.78
2023-06-19T09:25:45.855Z,32.53
2023-06-19T09:26:47.806Z,32.66
2023-06-19T09:27:50.000Z,32.77
2023-06-19T09:28:51.917Z,32.71
2023-06-19T09:29:54.066Z,32.59
2023-06-19T09:30:56.047Z,32.40
2023-06-19T09:31:58.161Z,32.40
2023-06-19T09:33:00.285Z,32.30
2023-06-19T09:34:02.428Z,32.11
2023-06-19T09:35:04.446Z,32.17
2023-06-19T09:36:06.817Z,32.08
2023-06-19T09:37:08.664Z,31.95
2023-06-19T09:38:10.514Z,31.92
2023-06-19T09:39:12.479Z,31.96
2023-06-19T09:40:14.634Z,32.24
2023-06-19T09:41:16.476Z,32.17
2023-06-19T09:42:18.438Z,32.46
2023-06-19T09:43:20.476Z,32.36
2023-06-19T09:44:22.228Z,32.39
2023-06-19T09:45:24.183Z,32.62
2023-06-19T09:46:26.029Z,32.97
2023-06-19T09:47:28.091Z,32.63
2023-06-19T09:48:30.205Z,32.29
2023-06-19T09:49:31.988Z,32.25
2023-06-19T09:50:34.041Z,31.97
2023-06-19T09:51:35.792Z,31.83
2023-06-19T09:52:37.744Z,32.07
2023-06-19T09:53:39.700Z,32.07
2023-06-19T09:54:41.754Z,32.18
2023-06-19T09:55:43.706Z,32.21
2023-06-19T09:56:45.664Z,32.20
2023-06-19T09:57:47.811Z,32.25
2023-06-19T09:58:49.771Z,32.24
2023-06-19T09:59:51.619Z,31.84
2023-06-19T10:00:53.677Z,31.76
2023-06-19T10:01:55.792Z,31.86
2023-06-19T10:02:57.746Z,31.81
2023-06-19T10:03:59.630Z,32.00
2023-06-19T10:05:01.597Z,32.06
2023-06-19T10:06:03.652Z,31.99
2023-06-19T10:07:05.590Z,32.31
2023-06-19T10:08:07.441Z,32.43
2023-06-19T10:09:09.305Z,32.14
2023-06-19T10:10:11.457Z,32.11
2023-06-19T10:11:13.305Z,31.25
2023-06-19T10:12:15.262Z,31.41
2023-06-19T10:13:17.104Z,31.41
2023-06-19T10:14:19.058Z,31.25
2023-06-19T10:15:20.802Z,31.25
2023-06-19T10:16:22.794Z,31.27
2023-06-19T10:17:24.969Z,31.43
2023-06-19T10:18:26.970Z,31.53
2023-06-19T10:19:28.928Z,31.75
2023-06-19T10:20:30.976Z,31.54
2023-06-19T10:21:33.228Z,31.37
2023-06-19T10:22:35.203Z,31.47
2023-06-19T10:23:37.048Z,31.84
2023-06-19T10:24:39.376Z,32.08
2023-06-19T10:25:41.458Z,31.76
2023-06-19T10:26:44.120Z,31.84
2023-06-19T10:27:46.080Z,31.83
2023-06-19T10:28:48.024Z,31.53
2023-06-19T10:30:00.227Z,31.74
2023-06-19T10:30:53.588Z,31.15
2023-06-19T10:31:55.537Z,30.86
2023-06-19T10:32:57.460Z,30.90
2023-06-19T10:33:59.429Z,30.80
2023-06-19T10:35:01.430Z,31.01
2023-06-19T10:36:03.334Z,31.08
2023-06-19T10:37:05.286Z,31.17
2023-06-19T10:38:07.239Z,31.05
2023-06-19T10:39:09.292Z,31.11
2023-06-19T10:40:11.228Z,31.60
2023-06-19T10:41:13.405Z,31.66
2023-06-19T10:42:15.482Z,31.42
2023-06-19T10:43:17.535Z,31.48
2023-06-19T10:44:19.468Z,31.43
2023-06-19T10:45:21.431Z,31.61
2023-06-19T10:46:23.396Z,31.53
2023-06-19T10:47:25.498Z,31.22
2023-06-19T10:48:27.387Z,31.17
2023-06-19T10:49:29.227Z,31.21
2023-06-19T10:50:31.184Z,31.32
2023-06-19T10:51:33.130Z,31.43
2023-06-19T10:52:35.184Z,31.68
2023-06-19T10:53:37.139Z,31.69
2023-06-19T10:54:39.091Z,31.69
2023-06-19T10:55:41.059Z,31.50
2023-06-19T10:56:43.200Z,31.39
2023-06-19T10:59:12.992Z,31.37
2023-06-19T11:00:15.325Z,31.22
2023-06-19T11:01:17.347Z,31.18
2023-06-19T11:02:19.515Z,31.32
2023-06-19T11:03:21.860Z,31.03
2023-06-19T11:04:23.804Z,30.93
2023-06-19T11:05:25.656Z,30.67
2023-06-19T11:06:27.704Z,30.58
2023-06-19T11:07:29.764Z,30.71
2023-06-19T11:08:31.609Z,30.80
2023-06-19T11:09:33.457Z,31.09
2023-06-19T11:10:35.720Z,30.82
2023-06-19T11:11:37.674Z,30.70
2023-06-19T11:12:39.423Z,30.81
2023-06-19T11:13:41.369Z,30.76
2023-06-19T11:14:43.336Z,30.95
2023-06-19T11:15:45.117Z,30.94
2023-06-19T11:16:48.659Z,30.86
2023-06-19T11:17:50.651Z,30.91
2023-06-19T11:18:52.586Z,30.66
2023-06-19T11:19:54.622Z,30.90
2023-06-19T11:20:56.593Z,31.11
2023-06-19T11:21:58.551Z,31.48
2023-06-19T11:23:00.584Z,31.09
2023-06-19T11:24:02.470Z,31.01
2023-06-19T11:25:04.490Z,30.94
2023-06-19T11:26:06.649Z,31.06
2023-06-19T11:27:08.708Z,31.17
2023-06-19T11:28:11.800Z,31.25
2023-06-19T11:29:13.744Z,30.89
2023-06-19T11:30:16.201Z,31.05
2023-06-19T11:31:18.390Z,30.93
2023-06-19T11:32:20.343Z,31.17
2023-06-19T11:33:22.159Z,31.17
2023-06-19T11:34:24.808Z,31.19
2023-06-19T11:35:26.780Z,31.28
2023-06-19T11:36:28.735Z,31.34
2023-06-19T11:37:30.787Z,31.27
2023-06-19T11:38:32.740Z,31.56
2023-06-19T11:39:34.598Z,31.56
2023-06-19T11:40:36.533Z,31.43
2023-06-19T11:41:38.373Z,31.54
2023-06-19T11:42:40.346Z,31.45
2023-06-19T11:43:42.224Z,31.22
2023-06-19T11:44:44.152Z,31.14
2023-06-19T11:45:46.161Z,31.36
2023-06-19T11:46:48.160Z,31.51
2023-06-19T11:47:49.939Z,31.35
2023-06-19T11:49:06.528Z,31.41
2023-06-19T11:49:55.654Z,31.48
2023-06-19T11:50:57.810Z,31.55
2023-06-19T11:51:59.766Z,31.29
2023-06-19T11:53:01.832Z,31.17
2023-06-19T11:54:04.958Z,31.24
2023-06-19T11:55:07.093Z,31.51
2023-06-19T11:56:09.350Z,31.75
2023-06-19T11:57:11.684Z,31.22
2023-06-19T11:58:14.041Z,30.96
2023-06-19T11:59:15.990Z,31.12
2023-06-19T12:00:17.987Z,31.74
2023-06-19T12:01:20.027Z,31.89
2023-06-19T12:02:22.357Z,31.67
2023-06-19T12:03:24.565Z,31.24
2023-06-19T12:04:26.786Z,31.36
2023-06-19T12:05:28.830Z,31.36
2023-06-19T12:06:30.886Z,31.26
2023-06-19T12:07:32.749Z,31.10
2023-06-19T12:08:34.586Z,31.23
2023-06-19T12:09:36.431Z,31.19
2023-06-19T12:10:38.394Z,31.19
2023-06-19T12:11:40.336Z,30.89
2023-06-19T12:12:42.700Z,31.00
2023-06-19T12:13:44.650Z,30.97
2023-06-19T12:14:46.601Z,31.60
2023-06-19T12:15:48.558Z,31.69
2023-06-19T12:16:50.768Z,31.48
2023-06-19T12:17:52.676Z,31.11
2023-06-19T12:18:54.721Z,31.11
2023-06-19T12:19:56.696Z,31.25
2023-06-19T12:20:59.246Z,31.32
2023-06-19T12:22:01.213Z,31.18
2023-06-19T12:23:03.147Z,31.20
2023-06-19T12:24:05.142Z,31.21
2023-06-19T12:25:07.050Z,30.79
2023-06-19T12:26:10.025Z,30.86
2023-06-19T12:27:11.983Z,30.77
2023-06-19T12:28:13.827Z,30.69
2023-06-19T12:29:16.094Z,31.05
2023-06-19T12:30:18.140Z,31.34
2023-06-19T12:31:20.151Z,31.32
2023-06-19T12:32:22.194Z,30.85
2023-06-19T12:33:24.205Z,30.71
2023-06-19T12:34:31.050Z,31.10
2023-06-19T12:35:29.961Z,31.67
2023-06-19T12:36:31.901Z,31.66
2023-06-19T12:37:33.819Z,31.67
2023-06-19T12:38:35.825Z,31.35
2023-06-19T12:39:37.957Z,31.51
2023-06-19T12:40:40.372Z,31.51
2023-06-19T12:41:44.087Z,31.21
2023-06-19T12:42:46.276Z,30.90
2023-06-19T12:43:48.123Z,30.89
2023-06-19T12:44:49.872Z,30.89
2023-06-19T12:45:51.775Z,30.72
2023-06-19T12:46:53.782Z,30.29
2023-06-19T12:47:56.379Z,30.37
2023-06-19T12:48:58.399Z,30.52
2023-06-19T12:50:00.397Z,30.52
2023-06-19T12:51:02.407Z,31.01
2023-06-19T12:52:04.367Z,30.70
2023-06-19T12:53:06.217Z,30.49
2023-06-19T12:54:08.458Z,30.28
2023-06-19T12:55:10.431Z,30.22
2023-06-19T12:56:14.325Z,30.47
2023-06-19T12:57:16.175Z,30.39
2023-06-19T12:58:18.029Z,30.51
2023-06-19T12:59:20.072Z,30.42
2023-06-19T13:00:22.051Z,30.55
2023-06-19T13:01:24.111Z,30.75
2023-06-19T13:02:26.282Z,30.81
2023-06-19T13:03:28.688Z,30.69
2023-06-19T13:04:30.456Z,30.74
2023-06-19T13:05:32.302Z,30.72
2023-06-19T13:06:34.369Z,30.56
2023-06-19T13:07:36.314Z,30.60
2023-06-19T13:08:38.268Z,30.90
2023-06-19T13:09:40.235Z,31.23
2023-06-19T13:10:42.597Z,31.23
2023-06-19T13:11:44.537Z,30.66
2023-06-19T13:12:46.497Z,30.07
2023-06-19T13:13:48.541Z,30.15
2023-06-19T13:14:50.497Z,30.17
2023-06-19T13:15:52.540Z,30.26
2023-06-19T13:16:54.859Z,30.25
2023-06-19T13:17:56.921Z,30.42
2023-06-19T13:18:58.822Z,30.40
2023-06-19T13:20:00.787Z,30.14
2023-06-19T13:21:02.850Z,29.93
2023-06-19T13:22:04.886Z,30.15
2023-06-19T13:23:06.869Z,30.13
2023-06-19T13:24:09.139Z,30.08
2023-06-19T13:25:11.357Z,29.99
2023-06-19T13:26:14.341Z,29.97
2023-06-19T13:27:16.181Z,29.97
2023-06-19T13:28:18.144Z,30.16
2023-06-19T13:29:20.186Z,30.15
2023-06-19T13:30:22.357Z,30.10
2023-06-19T13:31:24.605Z,30.19
2023-06-19T13:32:26.485Z,30.49
2023-06-19T13:33:28.523Z,30.77
2023-06-19T13:34:30.570Z,30.42
2023-06-19T13:35:32.623Z,30.52
2023-06-19T13:36:34.785Z,30.46
2023-06-19T13:37:36.626Z,29.96
2023-06-19T13:38:38.689Z,30.02
2023-06-19T13:39:40.737Z,30.32
2023-06-19T13:40:42.701Z,30.44
2023-06-19T13:41:45.454Z,30.34
2023-06-19T13:42:47.213Z,30.29
2023-06-19T13:43:49.170Z,30.54
2023-06-19T13:44:51.477Z,30.40
2023-06-19T13:45:53.585Z,30.26
2023-06-19T13:46:55.678Z,30.09
2023-06-19T13:47:57.722Z,29.87
2023-06-19T13:48:59.758Z,30.08
2023-06-19T13:50:01.822Z,30.16
2023-06-19T13:51:03.861Z,30.04
2023-06-19T13:52:05.725Z,30.14
2023-06-19T13:53:07.651Z,30.14
2023-06-19T13:54:09.598Z,29.86
2023-06-19T13:55:11.472Z,29.95
2023-06-19T13:57:34.722Z,29.92
2023-06-19T13:58:36.760Z,30.04
2023-06-19T13:59:38.612Z,29.91
2023-06-19T14:00:40.611Z,29.87
2023-06-19T14:01:42.632Z,30.04
2023-06-19T14:02:44.544Z,30.43
2023-06-19T14:03:46.589Z,30.00
2023-06-19T14:04:48.586Z,30.09
2023-06-19T14:05:50.429Z,30.26
2023-06-19T14:06:52.396Z,30.50
2023-06-19T14:07:54.442Z,30.54
2023-06-19T14:08:59.367Z,30.20
2023-06-19T14:10:01.242Z,30.20
2023-06-19T14:11:03.282Z,30.15
2023-06-19T14:12:05.215Z,30.17
2023-06-19T14:13:07.069Z,30.12
2023-06-19T14:14:09.023Z,30.02
2023-06-19T14:15:11.067Z,30.13
2023-06-19T14:16:13.254Z,30.12
2023-06-19T14:17:15.497Z,30.33
2023-06-19T14:18:17.451Z,30.45
2023-06-19T14:19:19.403Z,30.76
2023-06-19T14:20:21.580Z,30.91
2023-06-19T14:21:23.617Z,30.87
2023-06-19T14:22:25.466Z,31.08
2023-06-19T14:23:27.421Z,30.88
2023-06-19T14:24:29.313Z,30.88
2023-06-19T14:25:31.332Z,30.96
2023-06-19T14:26:33.698Z,30.90
2023-06-19T14:27:35.750Z,30.99
2023-06-19T14:28:37.693Z,30.85
2023-06-19T14:29:39.706Z,30.75
2023-06-19T14:30:41.693Z,30.75
2023-06-19T14:31:43.970Z,30.81
2023-06-19T14:32:45.887Z,30.85
2023-06-19T14:33:47.771Z,30.70
2023-06-19T14:34:49.502Z,30.81
2023-06-19T14:35:53.303Z,30.66
2023-06-19T14:36:55.458Z,30.66
2023-06-19T14:37:57.462Z,30.56
2023-06-19T14:38:59.368Z,30.70
2023-06-19T14:40:01.285Z,30.91
2023-06-19T14:41:03.267Z,30.91
2023-06-19T14:42:05.122Z,31.05
2023-06-19T14:43:07.094Z,31.17
2023-06-19T14:44:09.137Z,31.24
2023-06-19T14:45:11.090Z,31.39
2023-06-19T14:46:20.343Z,31.44
2023-06-19T14:47:17.057Z,31.25
2023-06-19T14:48:19.093Z,31.22
2023-06-19T14:49:21.163Z,31.48
2023-06-19T14:50:23.416Z,31.35
2023-06-19T14:51:25.772Z,31.33
2023-06-19T14:52:27.829Z,31.24
2023-06-19T14:53:30.001Z,30.95
2023-06-19T14:54:32.041Z,31.06
2023-06-19T14:55:34.091Z,31.03
2023-06-19T14:56:36.047Z,30.79
2023-06-19T14:57:37.989Z,30.75
2023-06-19T14:58:39.903Z,30.72
2023-06-19T14:59:41.905Z,30.44
2023-06-19T15:00:43.748Z,30.47
2023-06-19T15:01:45.754Z,30.45
2023-06-19T15:02:47.888Z,30.45
2023-06-19T15:03:50.055Z,30.51
2023-06-19T15:05:05.020Z,30.56
2023-06-19T15:05:55.907Z,30.59
2023-06-19T15:06:57.916Z,30.42
2023-06-19T15:07:59.872Z,30.47
2023-06-19T15:09:03.125Z,30.71
2023-06-19T15:10:05.635Z,30.54
2023-06-19T15:11:07.777Z,30.78
2023-06-19T15:12:09.732Z,30.65
2023-06-19T15:13:11.696Z,30.44
2023-06-19T15:14:13.743Z,30.44
2023-06-19T15:15:15.693Z,30.90
2023-06-19T15:16:17.672Z,30.92
2023-06-19T15:17:19.713Z,30.87
2023-06-19T15:18:21.738Z,30.67
2023-06-19T15:19:23.914Z,30.42
2023-06-19T15:20:26.025Z,30.17
2023-06-19T15:21:28.219Z,30.13
2023-06-19T15:22:30.199Z,30.36
2023-06-19T15:23:32.217Z,30.58
2023-06-19T15:24:34.238Z,30.70
2023-06-19T15:25:36.138Z,30.63
2023-06-19T15:26:40.214Z,30.32
2023-06-19T15:27:42.203Z,30.20
2023-06-19T15:28:44.148Z,30.53
2023-06-19T15:29:45.893Z,30.69
2023-06-19T15:30:47.863Z,30.55
2023-06-19T15:31:50.107Z,30.55
2023-06-19T15:32:52.128Z,30.54
2023-06-19T15:33:54.114Z,30.67
2023-06-19T15:34:56.477Z,30.69
2023-06-19T15:35:58.431Z,30.24
2023-06-19T15:37:00.383Z,29.68
2023-06-19T15:38:02.324Z,29.72
2023-06-19T15:39:04.185Z,29.89
2023-06-19T15:40:06.245Z,29.84
2023-06-19T15:41:08.288Z,30.00
2023-06-19T15:42:10.238Z,30.22
2023-06-19T15:43:12.090Z,30.57
2023-06-19T15:44:14.042Z,30.73
2023-06-19T15:45:16.198Z,30.78
2023-06-19T15:46:18.373Z,30.88
2023-06-19T15:47:20.537Z,31.05
2023-06-19T15:48:22.468Z,30.71
2023-06-19T15:49:24.429Z,30.61
2023-06-19T15:50:26.597Z,30.56
2023-06-19T15:51:28.944Z,30.75
2023-06-19T15:52:30.906Z,30.34
2023-06-19T15:53:32.847Z,30.05
2023-06-19T15:54:34.692Z,29.91
2023-06-19T15:55:36.646Z,29.91
2023-06-19T15:56:38.610Z,29.84
2023-06-19T15:57:40.543Z,29.91
2023-06-19T15:58:42.509Z,29.84
2023-06-19T15:59:44.459Z,29.81
2023-06-19T16:00:46.846Z,29.99
2023-06-19T16:01:48.934Z,29.99
2023-06-19T16:02:51.056Z,30.15
2023-06-19T16:03:53.405Z,30.37
2023-06-19T16:04:55.132Z,30.15
2023-06-19T16:06:07.039Z,29.95
2023-06-19T16:07:00.681Z,30.01
2023-06-19T16:08:02.638Z,29.77
2023-06-19T16:09:04.682Z,29.68
2023-06-19T16:10:06.752Z,29.73
2023-06-19T16:11:09.023Z,29.63
2023-06-19T16:12:10.955Z,29.37
2023-06-19T16:13:12.905Z,29.49
2023-06-19T16:14:14.771Z,29.58
2023-06-19T16:15:16.707Z,29.56
2023-06-19T16:16:18.879Z,29.62
2023-06-19T16:17:20.955Z,29.87
2023-06-19T16:18:22.896Z,29.86
2023-06-19T16:19:25.935Z,29.76
2023-06-19T16:20:27.904Z,29.79
2023-06-19T16:21:29.858Z,29.79
2023-06-19T16:22:31.709Z,29.82
2023-06-19T16:23:33.559Z,29.54
2023-06-19T16:24:35.524Z,29.36
2023-06-19T16:25:37.596Z,29.47
2023-06-19T16:26:39.531Z,29.65
2023-06-19T16:27:41.579Z,29.56
2023-06-19T16:28:43.429Z,29.54
2023-06-19T16:29:45.581Z,29.60
2023-06-19T16:30:47.540Z,29.73
2023-06-19T16:32:00.397Z,29.84
2023-06-19T16:32:53.024Z,29.94
2023-06-19T16:33:54.823Z,30.06
2023-06-19T16:34:56.678Z,30.13
2023-06-19T16:35:58.628Z,30.13
2023-06-19T16:37:00.473Z,30.32
2023-06-19T16:38:02.434Z,30.03
2023-06-19T16:39:04.380Z,29.96
2023-06-19T16:40:06.443Z,30.02
2023-06-19T16:41:08.283Z,29.80
2023-06-19T16:42:10.235Z,29.69
2023-06-19T16:43:12.021Z,29.65
2023-06-19T16:44:13.953Z,29.54
2023-06-19T16:45:15.925Z,29.64
2023-06-19T16:46:17.862Z,29.74
2023-06-19T16:47:19.800Z,29.85
2023-06-19T16:48:21.662Z,29.87
2023-06-19T16:49:23.795Z,29.98
2023-06-19T16:50:26.069Z,30.07
2023-06-19T16:51:28.015Z,30.07
2023-06-19T16:52:29.978Z,30.15
2023-06-19T16:53:31.816Z,30.61
2023-06-19T16:54:33.785Z,30.41
2023-06-19T16:55:35.843Z,30.36
2023-06-19T16:56:38.094Z,30.40
2023-06-19T16:57:39.942Z,30.31
2023-06-19T16:58:41.799Z,30.33
2023-06-19T16:59:43.650Z,30.31
2023-06-19T17:00:45.942Z,30.46
2023-06-19T17:01:48.009Z,30.47
2023-06-19T17:02:50.014Z,30.59
2023-06-19T17:03:51.964Z,30.69
2023-06-19T17:04:53.933Z,30.75
2023-06-19T17:05:55.975Z,30.83
2023-06-19T17:06:57.922Z,30.91
2023-06-19T17:07:59.874Z,30.90
2023-06-19T17:09:01.624Z,31.01
2023-06-19T17:10:03.653Z,30.97
2023-06-19T17:11:05.839Z,31.08
2023-06-19T17:12:07.786Z,31.09
2023-06-19T17:13:09.740Z,31.19
2023-06-19T17:14:11.693Z,31.23
2023-06-19T17:15:13.429Z,31.35
2023-06-19T17:16:15.616Z,31.36
2023-06-19T17:17:17.540Z,31.52
2023-06-19T17:18:19.499Z,31.52
2023-06-19T17:19:21.357Z,31.64
2023-06-19T17:20:24.230Z,31.57
2023-06-19T17:21:26.505Z,31.59
2023-06-19T17:22:28.436Z,31.72
2023-06-19T17:23:30.391Z,31.69
2023-06-19T17:24:32.265Z,31.72
2023-06-19T17:25:34.204Z,31.74
2023-06-19T17:26:36.146Z,31.83
2023-06-19T17:27:38.085Z,31.80
2023-06-19T17:28:40.046Z,31.88
2023-06-19T17:29:41.995Z,31.98
2023-06-19T17:30:44.055Z,32.14
2023-06-19T17:31:45.908Z,32.15
2023-06-19T17:32:47.836Z,32.28
2023-06-19T17:33:49.829Z,32.34
2023-06-19T17:34:51.871Z,32.31
2023-06-19T17:35:53.853Z,32.32
2023-06-19T17:36:55.776Z,32.31
2023-06-19T17:37:58.029Z,32.37
2023-06-19T17:38:59.886Z,32.43
2023-06-19T17:40:01.835Z,32.54
2023-06-19T17:41:03.783Z,32.52
2023-06-19T17:42:05.738Z,32.65
2023-06-19T17:43:07.688Z,32.75
2023-06-19T17:44:09.552Z,32.78
2023-06-19T17:45:11.625Z,32.80
2023-06-19T17:46:14.008Z,32.92
2023-06-19T17:47:15.939Z,33.02
2023-06-19T17:48:17.758Z,33.08
2023-06-19T17:49:19.608Z,33.08
2023-06-19T17:50:22.212Z,33.08
2023-06-19T17:51:24.441Z,33.18
2023-06-19T17:52:26.489Z,33.18
2023-06-19T17:53:28.440Z,33.32
2023-06-19T17:54:30.315Z,33.34
2023-06-19T17:55:32.155Z,33.40
2023-06-19T17:56:34.124Z,33.48
2023-06-19T17:57:36.156Z,33.54
2023-06-19T17:58:38.317Z,33.70
2023-06-19T17:59:40.259Z,33.67
2023-06-19T18:00:42.234Z,33.67
2023-06-19T18:01:44.262Z,33.75
2023-06-19T18:02:46.286Z,33.80
2023-06-19T18:03:48.334Z,33.81
2023-06-19T18:04:50.237Z,33.75
2023-06-19T18:05:52.192Z,33.75
2023-06-19T18:06:54.243Z,33.87
2023-06-19T18:07:56.186Z,33.92
2023-06-19T18:08:58.048Z,33.95
2023-06-19T18:10:00.395Z,33.91
2023-06-19T18:11:02.386Z,33.96
2023-06-19T18:12:04.419Z,34.05
2023-06-19T18:13:06.400Z,34.10
2023-06-19T18:14:08.320Z,34.03
2023-06-19T18:15:10.267Z,34.09
2023-06-19T18:16:13.970Z,33.91
2023-06-19T18:17:16.000Z,33.91
2023-06-19T18:18:18.717Z,34.11
2023-06-19T18:19:21.071Z,34.11
2023-06-19T18:20:23.710Z,34.22
2023-06-19T18:21:25.976Z,34.20
2023-06-19T18:22:27.817Z,34.22
2023-06-19T18:23:29.801Z,34.26
2023-06-19T18:24:31.879Z,34.32
2023-06-19T18:25:33.896Z,34.35
2023-06-19T18:26:36.036Z,34.45
2023-06-19T18:27:38.006Z,34.63
2023-06-19T18:28:39.960Z,34.79
2023-06-19T18:29:42.006Z,34.96
2023-06-19T18:30:43.957Z,34.96
2023-06-19T18:31:45.811Z,35.06
2023-06-19T18:32:47.788Z,35.24
2023-06-19T18:33:49.826Z,35.27
2023-06-19T18:34:51.867Z,35.39
2023-06-19T18:35:53.814Z,35.42
2023-06-19T18:36:55.673Z,35.56
2023-06-19T18:37:57.639Z,35.67
2023-06-19T18:38:59.676Z,35.61
2023-06-19T18:40:01.646Z,35.59
2023-06-19T18:41:03.588Z,35.59
2023-06-19T18:42:05.538Z,35.60
2023-06-19T18:43:07.485Z,35.68
2023-06-19T18:44:09.445Z,35.69
2023-06-19T18:45:11.808Z,35.68
2023-06-19T18:46:13.823Z,35.70
2023-06-19T18:47:15.805Z,35.80
2023-06-19T18:48:17.793Z,35.88
2023-06-19T18:49:19.712Z,35.93
2023-06-19T18:50:22.053Z,35.87
2023-06-19T18:51:24.037Z,35.90
2023-06-19T18:53:47.078Z,35.92
2023-06-19T18:54:49.034Z,35.96
2023-06-19T18:55:50.985Z,35.99
2023-06-19T18:56:52.938Z,36.04
2023-06-19T18:57:54.898Z,35.94
2023-06-19T18:58:56.933Z,35.92
2023-06-19T18:59:58.895Z,35.93
2023-06-19T19:01:02.476Z,35.89
2023-06-19T19:02:04.732Z,35.94
2023-06-19T19:03:06.857Z,36.01
2023-06-19T19:04:08.957Z,36.00
2023-06-19T19:05:10.816Z,36.00
2023-06-19T19:06:13.299Z,36.02
2023-06-19T19:07:16.248Z,36.15
2023-06-19T19:08:18.209Z,36.30
2023-06-19T19:09:20.180Z,36.26
2023-06-19T19:10:22.635Z,36.25
2023-06-19T19:11:24.778Z,36.29
2023-06-19T19:12:26.525Z,36.31
2023-06-19T19:13:28.484Z,36.31
2023-06-19T19:14:30.457Z,36.24
2023-06-19T19:15:32.503Z,36.19
2023-06-19T19:16:34.819Z,36.15
2023-06-19T19:17:36.741Z,36.20
2023-06-19T19:18:38.649Z,36.10
2023-06-19T19:19:40.616Z,36.01
2023-06-19T19:20:42.552Z,36.03
2023-06-19T19:21:44.514Z,36.18
2023-06-19T19:22:46.460Z,36.32
2023-06-19T19:23:48.419Z,36.30
2023-06-19T19:24:50.910Z,36.28
2023-06-19T19:25:52.861Z,36.29
2023-06-19T19:26:54.905Z,36.36
2023-06-19T19:27:57.352Z,36.42
2023-06-19T19:28:59.310Z,36.49
2023-06-19T19:30:01.334Z,36.48
2023-06-19T19:31:03.315Z,36.48
2023-06-19T19:32:05.362Z,36.44
2023-06-19T19:33:07.268Z,36.51
2023-06-19T19:34:09.272Z,36.59
2023-06-19T19:35:11.336Z,36.63
2023-06-19T19:36:13.890Z,36.64
2023-06-19T19:37:15.849Z,36.61
2023-06-19T19:38:17.711Z,36.62
2023-06-19T19:39:19.687Z,36.60
2023-06-19T19:40:21.598Z,36.58
2023-06-19T19:41:23.652Z,36.53
2023-06-19T19:42:25.711Z,36.44
2023-06-19T19:43:27.771Z,36.43
2023-06-19T19:44:29.715Z,36.37
2023-06-19T19:45:31.773Z,36.30
2023-06-19T19:46:34.355Z,36.38
2023-06-19T19:47:36.376Z,36.30
2023-06-19T19:48:38.442Z,36.31
2023-06-19T19:49:40.400Z,36.23
2023-06-19T19:50:42.460Z,36.20
2023-06-19T19:51:44.498Z,36.26
2023-06-19T19:52:46.361Z,36.24
2023-06-19T19:53:48.200Z,36.23
2023-06-19T19:54:50.057Z,36.24
2023-06-19T19:55:52.006Z,36.22
2023-06-19T19:56:53.985Z,36.22
2023-06-19T19:57:55.903Z,36.17
2023-06-19T19:58:57.872Z,36.16
2023-06-19T19:59:59.813Z,36.14
2023-06-19T20:01:01.764Z,36.19
2023-06-19T20:02:03.923Z,36.27
2023-06-19T20:03:05.923Z,36.27
2023-06-19T20:04:07.984Z,36.27
2023-06-19T20:05:09.986Z,36.21
2023-06-19T20:06:12.142Z,36.29
2023-06-19T20:07:14.092Z,36.34
2023-06-19T20:08:15.944Z,36.31
2023-06-19T20:09:17.792Z,36.33
2023-06-19T20:10:19.740Z,36.32
2023-06-19T20:11:21.712Z,36.32
2023-06-19T20:12:23.856Z,36.33
2023-06-19T20:13:25.811Z,36.38
2023-06-19T20:14:27.664Z,36.37
2023-06-19T20:15:29.609Z,36.43
2023-06-19T20:16:31.594Z,36.57
2023-06-19T20:17:33.582Z,36.55
2023-06-19T20:18:35.474Z,36.53